Time;durP1;ratioP1;P1;durP2;ratioP2;P2;SDS_P1;SDS_P2;PMS_P1;PMS_P2;Temp;Humidity;BMP_temperature;BMP_pressure;BME280_temperature;BME280_humidity;BME280_pressure;Samples;Min_cycle;Max_cycle;Signal;HPM_P1;HPM_P2
2021/01/15 00:01:06;;;;;;;17.20;13.75;;;;;;;;;;4993549;28;20369;-85
2021/01/15 00:03:33;;;;;;;18.85;14.30;;;;;;;;;;5008927;28;20373;-86
2021/01/15 00:06:05;;;;;;;19.08;14.02;;;;;;;;;;5008632;28;20447;-86
2021/01/15 00:08:31;;;;;;;15.77;11.93;;;;;;;;;;5010557;28;20513;-86
2021/01/15 00:10:57;;;;;;;16.92;12.35;;;;;;;;;;5009747;28;20737;-91
2021/01/15 00:13:23;;;;;;;17.98;12.02;;;;;;;;;;5011771;28;20367;-87
2021/01/15 00:15:49;;;;;;;13.75;11.75;;;;;;;;;;5011385;28;20909;-90
2021/01/15 00:18:15;;;;;;;16.15;11.98;;;;;;;;;;5012809;28;20387;-86
2021/01/15 00:20:41;;;;;;;17.43;11.37;;;;;;;;;;5008244;28;20428;-87
2021/01/15 00:23:07;;;;;;;15.50;11.73;;;;;;;;;;5002541;28;20459;-87
2021/01/15 00:25:33;;;;;;;16.70;11.73;;;;;;;;;;4991949;28;20804;-87
2021/01/15 00:27:59;;;;;;;16.83;11.70;;;;;;;;;;5005779;28;20382;-87
2021/01/15 00:30:25;;;;;;;16.10;12.00;;;;;;;;;;5012569;28;20745;-83
2021/01/15 00:32:51;;;;;;;15.15;11.50;;;;;;;;;;5012168;28;20368;-87
2021/01/15 00:35:17;;;;;;;16.08;11.93;;;;;;;;;;5011251;28;20371;-86
2021/01/15 00:37:43;;;;;;;15.50;11.80;;;;;;;;;;5011465;28;20897;-87
2021/01/15 00:40:09;;;;;;;15.75;11.15;;;;;;;;;;5011090;28;20391;-87
2021/01/15 00:42:35;;;;;;;13.98;11.10;;;;;;;;;;5008445;28;20382;-86
2021/01/15 00:45:01;;;;;;;14.35;11.32;;;;;;;;;;5011728;28;20384;-85
2021/01/15 00:47:31;;;;;;;15.88;11.57;;;;;;;;;;5017643;28;20413;-83
2021/01/15 00:49:58;;;;;;;14.43;11.23;;;;;;;;;;5012686;28;20394;-84
2021/01/15 00:52:24;;;;;;;13.63;11.02;;;;;;;;;;4977654;28;20380;-87
2021/01/15 00:54:50;;;;;;;15.63;11.63;;;;;;;;;;4991927;28;20384;-91
2021/01/15 00:57:16;;;;;;;15.68;12.02;;;;;;;;;;5000183;28;20502;-86
2021/01/15 00:59:42;;;;;;;15.23;11.65;;;;;;;;;;5011360;28;20385;-84
2021/01/15 01:02:09;;;;;;;15.27;11.35;;;;;;;;;;5010949;28;20418;-90
2021/01/15 01:04:35;;;;;;;14.77;11.43;;;;;;;;;;5008204;28;20385;-88
2021/01/15 01:07:01;;;;;;;13.63;11.35;;;;;;;;;;4993236;28;20384;-86
2021/01/15 01:09:27;;;;;;;14.40;11.30;;;;;;;;;;5012342;28;20363;-86
2021/01/15 01:11:57;;;;;;;13.13;11.15;;;;;;;;;;5009414;28;20393;-86
2021/01/15 01:14:23;;;;;;;13.15;10.88;;;;;;;;;;4991324;28;20365;-87
2021/01/15 01:16:49;;;;;;;12.68;10.40;;;;;;;;;;4995593;28;20981;-86
2021/01/15 01:19:15;;;;;;;13.50;10.90;;;;;;;;;;5011439;28;20380;-86
2021/01/15 01:21:41;;;;;;;14.50;10.63;;;;;;;;;;4982579;28;20385;-86
2021/01/15 01:24:07;;;;;;;13.02;10.70;;;;;;;;;;5014756;28;20378;-87
2021/01/15 01:26:33;;;;;;;14.73;11.00;;;;;;;;;;5014801;28;20719;-88
2021/01/15 01:28:59;;;;;;;13.97;10.93;;;;;;;;;;5014734;28;20563;-84
2021/01/15 01:31:25;;;;;;;13.73;11.55;;;;;;;;;;5015443;28;20359;-84
2021/01/15 01:33:51;;;;;;;14.10;11.50;;;;;;;;;;5014417;28;20414;-87
2021/01/15 01:36:17;;;;;;;13.18;10.93;;;;;;;;;;5015439;28;20378;-89
2021/01/15 01:38:43;;;;;;;15.83;11.63;;;;;;;;;;5001219;28;20375;-86
2021/01/15 01:41:10;;;;;;;14.48;11.38;;;;;;;;;;5014484;28;20716;-87
2021/01/15 01:43:36;;;;;;;16.35;11.93;;;;;;;;;;5012043;28;20382;-91
2021/01/15 01:46:03;;;;;;;16.35;11.80;;;;;;;;;;4996360;28;20419;-84
2021/01/15 01:48:29;;;;;;;17.70;12.07;;;;;;;;;;5014252;28;20470;-86
2021/01/15 01:50:56;;;;;;;14.88;11.77;;;;;;;;;;5016226;28;20378;-87
2021/01/15 01:53:25;;;;;;;16.42;12.43;;;;;;;;;;5011199;28;20855;-86
2021/01/15 01:55:51;;;;;;;15.43;12.35;;;;;;;;;;4996759;28;20457;-86
2021/01/15 01:58:17;;;;;;;15.90;11.90;;;;;;;;;;5007751;28;20393;-85
2021/01/15 02:00:45;;;;;;;14.60;11.07;;;;;;;;;;4995467;28;20889;-90
2021/01/15 02:03:17;;;;;;;17.37;12.77;;;;;;;;;;5009223;28;20466;-86
2021/01/15 02:05:43;;;;;;;15.00;11.88;;;;;;;;;;5014172;28;21061;-86
2021/01/15 02:08:09;;;;;;;15.33;12.33;;;;;;;;;;5014079;28;20394;-87
2021/01/15 02:10:38;;;;;;;17.85;12.90;;;;;;;;;;5014097;28;20389;-90
2021/01/15 02:13:23;;;;;;;17.23;12.77;;;;;;;;;;5010556;28;20377;-88
2021/01/15 02:15:58;;;;;;;18.33;13.38;;;;;;;;;;4994763;28;20392;-87
2021/01/15 02:18:29;;;;;;;18.40;12.85;;;;;;;;;;5008303;28;20394;-87
2021/01/15 02:21:10;;;;;;;16.13;12.45;;;;;;;;;;5013509;28;20415;-86
2021/01/15 02:23:43;;;;;;;18.33;13.48;;;;;;;;;;5014627;28;20877;-87
2021/01/15 02:26:27;;;;;;;18.53;13.57;;;;;;;;;;5015084;28;20753;-85
2021/01/15 02:29:05;;;;;;;18.23;13.13;;;;;;;;;;4995104;28;20444;-91
2021/01/15 02:31:38;;;;;;;18.80;14.27;;;;;;;;;;4995958;28;20384;-87
2021/01/15 02:34:08;;;;;;;19.30;14.07;;;;;;;;;;5010225;28;20867;-87
2021/01/15 02:36:58;;;;;;;19.10;14.07;;;;;;;;;;4997679;28;20365;-87
2021/01/15 02:39:43;;;;;;;18.00;13.88;;;;;;;;;;5007741;28;20387;-87
2021/01/15 02:42:10;;;;;;;17.33;13.50;;;;;;;;;;5012708;28;20977;-85
2021/01/15 02:44:39;;;;;;;17.83;13.73;;;;;;;;;;5013141;28;21142;-86
2021/01/15 02:47:06;;;;;;;16.55;13.27;;;;;;;;;;5009664;28;20365;-87
2021/01/15 02:49:34;;;;;;;17.07;13.13;;;;;;;;;;5013063;28;20567;-85
2021/01/15 02:52:00;;;;;;;18.85;13.75;;;;;;;;;;5014437;28;20367;-88
2021/01/15 02:54:26;;;;;;;15.95;13.23;;;;;;;;;;5005654;28;20369;-86
2021/01/15 02:56:52;;;;;;;17.65;12.95;;;;;;;;;;4996079;28;20392;-88
2021/01/15 02:59:19;;;;;;;16.97;13.07;;;;;;;;;;5002301;28;20363;-87
2021/01/15 03:02:03;;;;;;;15.52;12.95;;;;;;;;;;5011363;28;20389;-88
2021/01/15 03:04:55;;;;;;;17.17;13.02;;;;;;;;;;4994899;28;20372;-86
2021/01/15 03:07:23;;;;;;;18.80;13.40;;;;;;;;;;4996256;28;20377;-86
2021/01/15 03:09:50;;;;;;;16.42;13.48;;;;;;;;;;5000083;28;20379;-82
2021/01/15 03:12:17;;;;;;;18.23;14.43;;;;;;;;;;5009965;28;20372;-86
2021/01/15 03:14:44;;;;;;;17.60;13.68;;;;;;;;;;5018859;28;20367;-88
2021/01/15 03:17:11;;;;;;;16.97;13.47;;;;;;;;;;5013872;28;20970;-85
2021/01/15 03:19:38;;;;;;;16.42;12.90;;;;;;;;;;5009335;28;20780;-86
2021/01/15 03:22:10;;;;;;;18.38;14.00;;;;;;;;;;4993603;28;20694;-85
2021/01/15 03:24:36;;;;;;;17.80;13.85;;;;;;;;;;5000187;28;20428;-87
2021/01/15 03:27:02;;;;;;;16.08;13.02;;;;;;;;;;4994038;28;20384;-86
2021/01/15 03:29:29;;;;;;;16.63;13.48;;;;;;;;;;5002654;28;20353;-87
2021/01/15 03:31:55;;;;;;;17.47;14.30;;;;;;;;;;5008959;28;20467;-86
2021/01/15 03:34:20;;;;;;;17.95;14.35;;;;;;;;;;5008645;28;20452;-88
2021/01/15 03:36:46;;;;;;;17.67;14.85;;;;;;;;;;4994686;28;20406;-85
2021/01/15 03:39:12;;;;;;;19.80;15.57;;;;;;;;;;4995027;28;20395;-84
2021/01/15 03:41:38;;;;;;;18.63;14.87;;;;;;;;;;5011735;28;20603;-85
2021/01/15 03:44:05;;;;;;;18.73;14.48;;;;;;;;;;5008703;28;20463;-85
2021/01/15 03:46:30;;;;;;;18.25;14.68;;;;;;;;;;4994636;28;20384;-87
2021/01/15 03:48:57;;;;;;;20.42;15.25;;;;;;;;;;5008610;28;20384;-90
2021/01/15 03:51:23;;;;;;;17.60;14.57;;;;;;;;;;4992564;28;20420;-86
2021/01/15 03:53:49;;;;;;;16.63;13.90;;;;;;;;;;5008485;28;20856;-87
2021/01/15 03:56:18;;;;;;;17.65;14.75;;;;;;;;;;4993457;28;20368;-87
2021/01/15 03:58:44;;;;;;;18.20;14.20;;;;;;;;;;5010323;28;20391;-91
2021/01/15 04:01:10;;;;;;;19.27;15.70;;;;;;;;;;5012870;28;20374;-88
2021/01/15 04:03:36;;;;;;;18.02;14.55;;;;;;;;;;5011332;28;20383;-87
2021/01/15 04:06:02;;;;;;;19.02;14.65;;;;;;;;;;5011800;28;20717;-87
2021/01/15 04:08:28;;;;;;;22.23;15.48;;;;;;;;;;4995984;28;20396;-87
2021/01/15 04:10:54;;;;;;;18.85;15.27;;;;;;;;;;5007999;28;20864;-87
2021/01/15 04:13:20;;;;;;;20.85;16.13;;;;;;;;;;4991823;28;20377;-87
2021/01/15 04:15:46;;;;;;;19.53;15.97;;;;;;;;;;4993512;28;20369;-86
2021/01/15 04:18:12;;;;;;;18.25;15.30;;;;;;;;;;5007291;28;20401;-86
2021/01/15 04:20:38;;;;;;;20.30;16.42;;;;;;;;;;5007497;28;20876;-87
2021/01/15 04:23:04;;;;;;;20.05;15.60;;;;;;;;;;4994518;28;20378;-87
2021/01/15 04:25:30;;;;;;;19.70;14.23;;;;;;;;;;5011709;28;20850;-85
2021/01/15 04:27:57;;;;;;;18.10;14.30;;;;;;;;;;5008216;28;20380;-87
2021/01/15 04:30:23;;;;;;;19.10;14.23;;;;;;;;;;4991356;28;20393;-88
2021/01/15 04:32:49;;;;;;;17.00;14.17;;;;;;;;;;4991613;28;20440;-87
2021/01/15 04:35:17;;;;;;;18.00;14.55;;;;;;;;;;5008555;28;20382;-85
2021/01/15 04:37:43;;;;;;;18.67;14.75;;;;;;;;;;5007622;28;20405;-90
2021/01/15 04:40:09;;;;;;;18.60;14.13;;;;;;;;;;4991513;28;20389;-90
2021/01/15 04:42:36;;;;;;;17.10;13.50;;;;;;;;;;5002432;28;20437;-86
2021/01/15 04:45:02;;;;;;;20.35;14.73;;;;;;;;;;5012804;28;20355;-87
2021/01/15 04:47:31;;;;;;;17.35;13.32;;;;;;;;;;5011143;28;20371;-91
2021/01/15 04:49:57;;;;;;;16.73;13.05;;;;;;;;;;5010732;28;20363;-88
2021/01/15 04:52:23;;;;;;;16.50;13.18;;;;;;;;;;5007734;28;20400;-86
2021/01/15 04:54:57;;;;;;;15.10;12.82;;;;;;;;;;5007457;28;20408;-85
2021/01/15 04:57:24;;;;;;;16.90;13.48;;;;;;;;;;4995693;28;20393;-86
2021/01/15 04:59:50;;;;;;;17.08;13.23;;;;;;;;;;4999837;28;20397;-86
2021/01/15 05:02:17;;;;;;;17.63;13.43;;;;;;;;;;4991887;28;20468;-86
2021/01/15 05:04:44;;;;;;;16.73;13.32;;;;;;;;;;5002160;28;20398;-84
2021/01/15 05:07:11;;;;;;;18.15;14.00;;;;;;;;;;4991646;28;20682;-87
2021/01/15 05:09:40;;;;;;;15.93;13.30;;;;;;;;;;4991610;28;20448;-86
2021/01/15 05:12:07;;;;;;;14.82;12.60;;;;;;;;;;4975483;28;20404;-87
2021/01/15 05:14:34;;;;;;;15.47;12.63;;;;;;;;;;4981726;28;20377;-86
2021/01/15 05:17:01;;;;;;;16.40;13.15;;;;;;;;;;4998013;28;20480;-86
2021/01/15 05:19:27;;;;;;;15.23;12.73;;;;;;;;;;5009495;28;20395;-86
2021/01/15 05:21:53;;;;;;;16.73;12.98;;;;;;;;;;4995381;28;20734;-85
2021/01/15 05:24:19;;;;;;;15.38;12.90;;;;;;;;;;5007886;28;20381;-85
2021/01/15 05:26:45;;;;;;;17.33;12.47;;;;;;;;;;4996826;28;20464;-87
2021/01/15 05:29:11;;;;;;;15.45;12.63;;;;;;;;;;5012212;28;20846;-86
2021/01/15 05:31:47;;;;;;;15.75;13.23;;;;;;;;;;5008394;28;20380;-87
2021/01/15 05:34:13;;;;;;;15.88;13.18;;;;;;;;;;4999332;28;20443;-85
2021/01/15 05:36:39;;;;;;;15.77;13.15;;;;;;;;;;4999503;28;20456;-87
2021/01/15 05:39:09;;;;;;;16.13;13.02;;;;;;;;;;4991328;28;20859;-86
2021/01/15 05:41:35;;;;;;;17.55;13.68;;;;;;;;;;4993937;28;20377;-86
2021/01/15 05:44:01;;;;;;;16.23;13.75;;;;;;;;;;5012555;28;20367;-83
2021/01/15 05:46:28;;;;;;;17.23;13.70;;;;;;;;;;5011697;28;20368;-90
2021/01/15 05:48:54;;;;;;;16.65;12.70;;;;;;;;;;5012465;28;20419;-86
2021/01/15 05:51:26;;;;;;;15.27;13.20;;;;;;;;;;5012237;28;20387;-89
2021/01/15 05:53:53;;;;;;;17.00;14.50;;;;;;;;;;5012353;28;20505;-87
2021/01/15 05:56:19;;;;;;;17.88;14.10;;;;;;;;;;5012537;28;20363;-85
2021/01/15 05:59:04;;;;;;;17.20;13.40;;;;;;;;;;5009797;28;20910;-82
2021/01/15 06:01:52;;;;;;;19.60;15.23;;;;;;;;;;4992525;28;20377;-87
2021/01/15 06:04:33;;;;;;;17.77;14.60;;;;;;;;;;4995893;28;20428;-89
2021/01/15 06:07:20;;;;;;;19.45;15.43;;;;;;;;;;4996742;28;20384;-85
2021/01/15 06:09:52;;;;;;;17.83;14.60;;;;;;;;;;4997194;28;20740;-90
2021/01/15 06:12:19;;;;;;;18.47;14.30;;;;;;;;;;5015424;28;20383;-86
2021/01/15 06:14:57;;;;;;;18.80;14.60;;;;;;;;;;5013124;28;20440;-88
2021/01/15 06:17:25;;;;;;;17.67;14.10;;;;;;;;;;5014992;28;20427;-82
2021/01/15 06:19:50;;;;;;;17.67;14.82;;;;;;;;;;5013638;28;20445;-87
2021/01/15 06:22:27;;;;;;;17.25;14.50;;;;;;;;;;5010349;28;20372;-87
2021/01/15 06:25:13;;;;;;;19.20;15.48;;;;;;;;;;4991945;28;20814;-91
2021/01/15 06:27:40;;;;;;;18.30;14.73;;;;;;;;;;5003710;28;20429;-85
2021/01/15 06:30:17;;;;;;;18.63;15.55;;;;;;;;;;5014575;28;20363;-85
2021/01/15 06:32:44;;;;;;;18.33;15.60;;;;;;;;;;5007928;28;20960;-85
2021/01/15 06:35:23;;;;;;;19.10;15.32;;;;;;;;;;4997749;28;20372;-88
2021/01/15 06:37:58;;;;;;;17.42;14.00;;;;;;;;;;5012410;28;20391;-86
2021/01/15 06:40:29;;;;;;;20.73;15.63;;;;;;;;;;5008846;28;20401;-85
2021/01/15 06:42:58;;;;;;;16.77;14.65;;;;;;;;;;4994964;28;20365;-85
2021/01/15 06:45:24;;;;;;;17.65;14.60;;;;;;;;;;5012757;28;20371;-86
2021/01/15 06:47:53;;;;;;;17.03;14.60;;;;;;;;;;5012581;28;20391;-88
2021/01/15 06:50:21;;;;;;;16.00;14.05;;;;;;;;;;5000622;28;20727;-85
2021/01/15 06:52:49;;;;;;;15.43;13.80;;;;;;;;;;5011611;28;20893;-86
2021/01/15 06:55:19;;;;;;;15.27;13.07;;;;;;;;;;5012580;28;20948;-84
2021/01/15 06:57:47;;;;;;;15.30;13.70;;;;;;;;;;5009873;28;20755;-85
2021/01/15 07:00:14;;;;;;;17.75;14.00;;;;;;;;;;4993283;28;20469;-85
2021/01/15 07:02:40;;;;;;;15.90;13.82;;;;;;;;;;4999737;28;20383;-86
2021/01/15 07:05:12;;;;;;;15.03;13.43;;;;;;;;;;5008280;28;20389;-83
2021/01/15 07:07:38;;;;;;;15.77;13.10;;;;;;;;;;4994987;28;20389;-86
2021/01/15 07:10:05;;;;;;;14.65;13.15;;;;;;;;;;5006217;28;20380;-84
2021/01/15 07:12:41;;;;;;;13.93;12.32;;;;;;;;;;4996361;28;20662;-85
2021/01/15 07:15:12;;;;;;;14.30;12.80;;;;;;;;;;5012278;28;20842;-86
2021/01/15 07:17:38;;;;;;;15.82;13.57;;;;;;;;;;5007729;28;20395;-86
2021/01/15 07:20:14;;;;;;;14.95;13.35;;;;;;;;;;5012393;28;20410;-84
2021/01/15 07:23:03;;;;;;;16.60;14.48;;;;;;;;;;5007389;28;21645;-87
2021/01/15 07:25:29;;;;;;;16.33;13.68;;;;;;;;;;4987847;28;20375;-86
2021/01/15 07:27:55;;;;;;;14.47;12.97;;;;;;;;;;5013593;28;20787;-89
2021/01/15 07:30:26;;;;;;;14.98;13.38;;;;;;;;;;5013355;28;20791;-88
2021/01/15 07:32:55;;;;;;;16.33;14.52;;;;;;;;;;5012469;28;20397;-88
2021/01/15 07:35:26;;;;;;;18.15;14.20;;;;;;;;;;4998175;28;20365;-88
2021/01/15 07:38:24;;;;;;;16.07;14.20;;;;;;;;;;4999837;28;20451;-90
2021/01/15 07:40:50;;;;;;;16.65;14.88;;;;;;;;;;4966722;28;20426;-88
2021/01/15 07:43:34;;;;;;;17.77;14.73;;;;;;;;;;5013858;28;20448;-88
2021/01/15 07:46:04;;;;;;;18.95;16.02;;;;;;;;;;5002370;28;20494;-90
2021/01/15 07:48:30;;;;;;;17.60;15.67;;;;;;;;;;5008705;28;20441;-86
2021/01/15 07:50:56;;;;;;;18.67;15.52;;;;;;;;;;5013641;28;20378;-79
2021/01/15 07:53:23;;;;;;;19.58;16.35;;;;;;;;;;5011682;28;20402;-83
2021/01/15 07:55:50;;;;;;;16.75;15.02;;;;;;;;;;4994061;28;20388;-84
2021/01/15 07:58:44;;;;;;;15.27;13.65;;;;;;;;;;5011881;28;20391;-85
2021/01/15 08:01:12;;;;;;;15.27;13.60;;;;;;;;;;5013332;28;20403;-84
2021/01/15 08:03:42;;;;;;;14.20;12.60;;;;;;;;;;5013240;28;20370;-85
2021/01/15 08:06:08;;;;;;;12.80;11.40;;;;;;;;;;5012346;28;20410;-84
2021/01/15 08:08:41;;;;;;;12.95;11.02;;;;;;;;;;5010560;28;20371;-82
2021/01/15 08:11:14;;;;;;;14.27;12.43;;;;;;;;;;5008964;28;20437;-82
2021/01/15 08:13:40;;;;;;;13.75;12.35;;;;;;;;;;4991884;28;20377;-85
2021/01/15 08:16:07;;;;;;;13.85;12.20;;;;;;;;;;5011439;28;20382;-83
2021/01/15 08:18:33;;;;;;;15.05;12.93;;;;;;;;;;5010719;28;20873;-82
2021/01/15 08:21:00;;;;;;;14.17;12.77;;;;;;;;;;5011990;28;20406;-83
2021/01/15 08:23:26;;;;;;;13.35;11.90;;;;;;;;;;5011039;28;20863;-88
2021/01/15 08:26:02;;;;;;;14.35;12.00;;;;;;;;;;5008951;28;20380;-86
2021/01/15 08:28:42;;;;;;;12.10;10.90;;;;;;;;;;5010967;28;20421;-81
2021/01/15 08:31:08;;;;;;;13.32;11.07;;;;;;;;;;5010790;28;20375;-82
2021/01/15 08:33:35;;;;;;;12.27;10.95;;;;;;;;;;5011679;28;20420;-82
2021/01/15 08:36:04;;;;;;;13.18;11.30;;;;;;;;;;5010362;28;20379;-83
2021/01/15 08:38:32;;;;;;;12.10;10.88;;;;;;;;;;5010080;28;20410;-85
2021/01/15 08:40:59;;;;;;;11.03;9.93;;;;;;;;;;5004060;28;20390;-81
2021/01/15 08:43:25;;;;;;;11.25;9.65;;;;;;;;;;5011005;28;20405;-85
2021/01/15 08:45:52;;;;;;;11.03;9.93;;;;;;;;;;5011451;28;20375;-83
2021/01/15 08:48:19;;;;;;;11.00;9.95;;;;;;;;;;5012121;28;20368;-83
2021/01/15 08:50:45;;;;;;;10.75;9.75;;;;;;;;;;5011084;28;20379;-82
2021/01/15 08:53:11;;;;;;;11.15;10.02;;;;;;;;;;4989004;28;20391;-87
2021/01/15 08:55:40;;;;;;;11.10;10.00;;;;;;;;;;4999927;28;20499;-84
2021/01/15 08:58:07;;;;;;;11.30;10.20;;;;;;;;;;5001127;28;20392;-85
2021/01/15 09:00:34;;;;;;;12.37;11.03;;;;;;;;;;5005193;28;20810;-86
2021/01/15 09:03:01;;;;;;;11.30;10.10;;;;;;;;;;5011306;28;20375;-84
2021/01/15 09:05:28;;;;;;;11.88;10.70;;;;;;;;;;5002288;28;20371;-85
2021/01/15 09:08:00;;;;;;;11.98;10.77;;;;;;;;;;5007202;28;20904;-86
2021/01/15 09:10:27;;;;;;;13.25;11.85;;;;;;;;;;5010725;28;20384;-83
2021/01/15 09:12:54;;;;;;;12.55;10.77;;;;;;;;;;5011125;28;20765;-84
2021/01/15 09:15:24;;;;;;;13.07;11.40;;;;;;;;;;5001619;28;20908;-84
2021/01/15 09:17:50;;;;;;;13.60;12.18;;;;;;;;;;5005098;28;20405;-81
2021/01/15 09:20:17;;;;;;;14.15;12.73;;;;;;;;;;4974832;28;20435;-83
2021/01/15 09:22:43;;;;;;;15.65;13.90;;;;;;;;;;4996534;28;20466;-86
2021/01/15 09:25:10;;;;;;;16.15;14.43;;;;;;;;;;5011721;28;20402;-87
2021/01/15 09:27:36;;;;;;;15.18;13.43;;;;;;;;;;5005039;28;20375;-83
2021/01/15 09:30:02;;;;;;;14.85;13.23;;;;;;;;;;5004322;28;20395;-85
2021/01/15 09:32:28;;;;;;;14.07;12.57;;;;;;;;;;5002337;28;20385;-84
2021/01/15 09:34:55;;;;;;;13.27;11.88;;;;;;;;;;5008823;28;20738;-84
2021/01/15 09:37:21;;;;;;;13.88;12.43;;;;;;;;;;5003638;28;20400;-86
2021/01/15 09:39:47;;;;;;;13.93;12.52;;;;;;;;;;4985494;28;20387;-82
2021/01/15 09:42:14;;;;;;;13.38;11.98;;;;;;;;;;5007278;28;20378;-87
2021/01/15 09:44:40;;;;;;;11.88;10.50;;;;;;;;;;5010273;28;20377;-87
2021/01/15 09:47:06;;;;;;;12.07;10.88;;;;;;;;;;5000072;28;20392;-87
2021/01/15 09:49:33;;;;;;;12.40;11.10;;;;;;;;;;5003806;28;20488;-86
2021/01/15 09:51:59;;;;;;;12.38;11.10;;;;;;;;;;5002591;28;20373;-86
2021/01/15 09:54:25;;;;;;;12.23;11.02;;;;;;;;;;5006071;28;20364;-86
2021/01/15 09:56:52;;;;;;;12.38;11.07;;;;;;;;;;4997467;28;20429;-86
2021/01/15 09:59:20;;;;;;;12.05;10.82;;;;;;;;;;4993474;28;20412;-83
2021/01/15 10:01:47;;;;;;;12.05;10.73;;;;;;;;;;5002433;28;20931;-86
2021/01/15 10:04:13;;;;;;;12.63;11.32;;;;;;;;;;5009643;28;20380;-87
2021/01/15 10:06:40;;;;;;;12.43;11.15;;;;;;;;;;5002136;28;20367;-84
2021/01/15 10:09:07;;;;;;;13.00;11.63;;;;;;;;;;5013344;28;20459;-83
2021/01/15 10:11:34;;;;;;;12.20;10.93;;;;;;;;;;5009251;28;20373;-88
2021/01/15 10:14:01;;;;;;;12.30;11.00;;;;;;;;;;5006485;28;20733;-87
2021/01/15 10:16:27;;;;;;;11.65;10.45;;;;;;;;;;5016210;28;20363;-84
2021/01/15 10:18:54;;;;;;;11.80;10.60;;;;;;;;;;5016192;28;20510;-87
2021/01/15 10:21:24;;;;;;;12.25;10.85;;;;;;;;;;5011520;28;20455;-84
2021/01/15 10:23:54;;;;;;;12.05;10.75;;;;;;;;;;5004283;28;20908;-88
2021/01/15 10:26:28;;;;;;;11.52;10.35;;;;;;;;;;5016488;28;20441;-86
2021/01/15 10:28:58;;;;;;;11.50;9.98;;;;;;;;;;5016537;28;20363;-87
2021/01/15 10:31:25;;;;;;;10.85;9.75;;;;;;;;;;5014961;28;20866;-85
2021/01/15 10:33:51;;;;;;;10.52;9.43;;;;;;;;;;5009577;28;20368;-87
2021/01/15 10:36:17;;;;;;;11.35;10.15;;;;;;;;;;5006368;28;20375;-86
2021/01/15 10:38:43;;;;;;;11.02;9.80;;;;;;;;;;4994821;28;20436;-84
2021/01/15 10:41:09;;;;;;;10.63;9.55;;;;;;;;;;4993618;28;20751;-86
2021/01/15 10:43:35;;;;;;;10.35;8.77;;;;;;;;;;4996183;28;20388;-87
2021/01/15 10:46:01;;;;;;;9.27;8.38;;;;;;;;;;5001511;28;20385;-85
2021/01/15 10:48:27;;;;;;;9.30;8.35;;;;;;;;;;5012002;28;20379;-85
2021/01/15 10:50:55;;;;;;;8.88;7.85;;;;;;;;;;5012908;28;20908;-85
2021/01/15 10:53:21;;;;;;;10.45;8.95;;;;;;;;;;5003167;28;20382;-83
2021/01/15 10:55:48;;;;;;;9.25;8.27;;;;;;;;;;5013416;28;20379;-85
2021/01/15 10:58:15;;;;;;;9.63;8.43;;;;;;;;;;5013920;28;20406;-84
2021/01/15 11:00:41;;;;;;;9.60;8.60;;;;;;;;;;5012989;28;20391;-84
2021/01/15 11:03:07;;;;;;;9.40;8.45;;;;;;;;;;5012829;28;20379;-85
2021/01/15 11:05:33;;;;;;;9.75;8.75;;;;;;;;;;5012746;28;20386;-84
2021/01/15 11:07:59;;;;;;;10.07;8.95;;;;;;;;;;5013113;28;20466;-88
2021/01/15 11:10:26;;;;;;;10.05;8.52;;;;;;;;;;5014025;28;20699;-84
2021/01/15 11:12:57;;;;;;;9.65;8.60;;;;;;;;;;4996147;28;20387;-89
2021/01/15 11:15:23;;;;;;;10.38;8.20;;;;;;;;;;5014369;28;20363;-88
2021/01/15 11:17:49;;;;;;;10.35;8.77;;;;;;;;;;5013997;28;20426;-86
2021/01/15 11:20:15;;;;;;;9.43;8.38;;;;;;;;;;5012838;28;20379;-87
2021/01/15 11:22:42;;;;;;;9.00;8.10;;;;;;;;;;5012516;28;20383;-83
2021/01/15 11:25:08;;;;;;;8.82;7.93;;;;;;;;;;5014278;28;20391;-87
2021/01/15 11:27:34;;;;;;;9.65;8.75;;;;;;;;;;5011701;28;20379;-88
2021/01/15 11:30:01;;;;;;;8.90;8.00;;;;;;;;;;4995183;28;20428;-88
2021/01/15 11:32:27;;;;;;;9.90;8.90;;;;;;;;;;5013284;28;20367;-86
2021/01/15 11:34:54;;;;;;;9.15;8.20;;;;;;;;;;5013593;28;20364;-87
2021/01/15 11:37:20;;;;;;;9.85;8.90;;;;;;;;;;5014899;28;20391;-88
2021/01/15 11:39:46;;;;;;;9.70;8.70;;;;;;;;;;4996329;28;20458;-86
2021/01/15 11:42:12;;;;;;;10.25;8.75;;;;;;;;;;5001573;28;20377;-85
2021/01/15 11:44:38;;;;;;;10.03;9.03;;;;;;;;;;5012762;28;20531;-84
2021/01/15 11:47:05;;;;;;;10.77;9.63;;;;;;;;;;5005107;28;20422;-83
2021/01/15 11:49:31;;;;;;;10.70;9.65;;;;;;;;;;5012616;28;20446;-86
2021/01/15 11:52:02;;;;;;;10.33;9.33;;;;;;;;;;5013896;28;20848;-84
2021/01/15 11:54:28;;;;;;;10.27;9.23;;;;;;;;;;5012789;28;20406;-84
2021/01/15 11:56:54;;;;;;;10.47;9.33;;;;;;;;;;5013027;28;20440;-87
2021/01/15 11:59:20;;;;;;;10.75;9.55;;;;;;;;;;5013348;28;20367;-85
2021/01/15 12:01:47;;;;;;;10.45;8.95;;;;;;;;;;5012323;28;20439;-85
2021/01/15 12:04:13;;;;;;;10.05;9.05;;;;;;;;;;5013602;28;20371;-86
2021/01/15 12:06:39;;;;;;;10.15;9.05;;;;;;;;;;5014155;28;20379;-88
2021/01/15 12:09:05;;;;;;;10.07;9.02;;;;;;;;;;5013665;28;20397;-84
2021/01/15 12:11:36;;;;;;;10.50;9.45;;;;;;;;;;5012097;28;20726;-84
2021/01/15 12:14:02;;;;;;;10.88;9.50;;;;;;;;;;5012355;28;20359;-81
2021/01/15 12:16:28;;;;;;;10.57;9.55;;;;;;;;;;5012972;28;20810;-81
2021/01/15 12:18:54;;;;;;;10.18;9.15;;;;;;;;;;4997536;28;20449;-83
2021/01/15 12:21:20;;;;;;;10.02;9.02;;;;;;;;;;4995563;28;20368;-84
2021/01/15 12:23:46;;;;;;;9.27;8.35;;;;;;;;;;5013860;28;20367;-85
2021/01/15 12:26:12;;;;;;;10.70;9.57;;;;;;;;;;5012883;28;20363;-87
2021/01/15 12:28:38;;;;;;;10.35;9.27;;;;;;;;;;5012710;28;20414;-82
2021/01/15 12:31:04;;;;;;;10.10;9.05;;;;;;;;;;5013434;28;20386;-85
2021/01/15 12:33:30;;;;;;;9.90;8.90;;;;;;;;;;5003902;28;20499;-83
2021/01/15 12:35:57;;;;;;;10.10;9.10;;;;;;;;;;5011733;28;20458;-85
2021/01/15 12:38:23;;;;;;;10.83;9.73;;;;;;;;;;5004977;28;20827;-84
2021/01/15 12:40:55;;;;;;;11.77;10.02;;;;;;;;;;5002377;28;20463;-88
2021/01/15 12:43:22;;;;;;;11.07;9.98;;;;;;;;;;5006951;28;20375;-83
2021/01/15 12:45:49;;;;;;;10.43;9.33;;;;;;;;;;5010974;28;20371;-81
2021/01/15 12:48:16;;;;;;;10.43;9.38;;;;;;;;;;4996055;28;20459;-86
2021/01/15 12:50:42;;;;;;;9.82;8.82;;;;;;;;;;4990824;28;20377;-87
2021/01/15 12:53:08;;;;;;;10.05;9.07;;;;;;;;;;5006688;28;20413;-88
2021/01/15 12:55:34;;;;;;;10.98;9.57;;;;;;;;;;5010626;28;20378;-83
2021/01/15 12:58:01;;;;;;;11.80;10.60;;;;;;;;;;5001780;28;20474;-87
2021/01/15 13:00:27;;;;;;;9.77;8.88;;;;;;;;;;4989583;28;20864;-83
2021/01/15 13:02:53;;;;;;;9.93;8.80;;;;;;;;;;5002859;28;20364;-88
2021/01/15 13:05:20;;;;;;;9.43;8.52;;;;;;;;;;5006788;28;20895;-84
2021/01/15 13:07:46;;;;;;;9.27;8.30;;;;;;;;;;5000849;28;20840;-83
2021/01/15 13:10:13;;;;;;;9.67;8.67;;;;;;;;;;5008985;28;20416;-90
2021/01/15 13:12:39;;;;;;;9.68;8.68;;;;;;;;;;5003791;28;20438;-86
2021/01/15 13:15:18;;;;;;;9.27;8.38;;;;;;;;;;5006048;28;20443;-89
2021/01/15 13:17:51;;;;;;;9.45;8.43;;;;;;;;;;5013704;28;20493;-91
2021/01/15 13:20:18;;;;;;;10.38;8.70;;;;;;;;;;4999566;28;20371;-83
2021/01/15 13:22:45;;;;;;;9.20;8.30;;;;;;;;;;5002730;28;20448;-80
2021/01/15 13:25:11;;;;;;;9.85;8.85;;;;;;;;;;5005979;28;20392;-83
2021/01/15 13:27:41;;;;;;;9.90;8.70;;;;;;;;;;5010882;28;20861;-83
2021/01/15 13:30:07;;;;;;;9.40;8.50;;;;;;;;;;5008811;28;20473;-82
2021/01/15 13:32:33;;;;;;;9.38;8.38;;;;;;;;;;5014562;28;20367;-80
2021/01/15 13:34:59;;;;;;;9.70;8.70;;;;;;;;;;5015360;28;20362;-83
2021/01/15 13:37:25;;;;;;;9.65;8.63;;;;;;;;;;5015929;28;20391;-81
2021/01/15 13:39:51;;;;;;;9.37;8.47;;;;;;;;;;5014567;28;20896;-83
2021/01/15 13:42:17;;;;;;;9.43;8.35;;;;;;;;;;5015163;28;20403;-81
2021/01/15 13:44:43;;;;;;;9.43;8.52;;;;;;;;;;5002554;28;20374;-83
2021/01/15 13:47:09;;;;;;;9.45;8.43;;;;;;;;;;5009183;28;20392;-84
2021/01/15 13:49:39;;;;;;;9.40;8.40;;;;;;;;;;5006102;28;20529;-82
2021/01/15 13:52:09;;;;;;;8.75;7.85;;;;;;;;;;5004634;28;20894;-81
2021/01/15 13:54:35;;;;;;;9.05;8.15;;;;;;;;;;5008331;28;20389;-80
2021/01/15 13:57:01;;;;;;;9.18;8.18;;;;;;;;;;5008359;28;20431;-83
2021/01/15 13:59:30;;;;;;;9.05;8.02;;;;;;;;;;5002696;28;20452;-80
2021/01/15 14:01:56;;;;;;;10.02;8.90;;;;;;;;;;5006274;28;20798;-80
2021/01/15 14:04:23;;;;;;;9.15;8.25;;;;;;;;;;5004638;28;20380;-82
2021/01/15 14:06:49;;;;;;;8.85;7.97;;;;;;;;;;5007361;28;20372;-81
2021/01/15 14:09:17;;;;;;;8.65;7.75;;;;;;;;;;5005387;28;20370;-90
2021/01/15 14:11:43;;;;;;;9.93;8.60;;;;;;;;;;5000836;28;20394;-82
2021/01/15 14:14:09;;;;;;;8.40;7.50;;;;;;;;;;5013865;28;20375;-82
2021/01/15 14:16:38;;;;;;;9.23;7.88;;;;;;;;;;5007251;28;22441;-80
2021/01/15 14:19:04;;;;;;;10.43;7.82;;;;;;;;;;5006764;28;20952;-83
2021/01/15 14:21:31;;;;;;;8.38;7.57;;;;;;;;;;4999810;28;20377;-80
2021/01/15 14:23:58;;;;;;;9.97;8.20;;;;;;;;;;5001559;28;20463;-83
2021/01/15 14:26:24;;;;;;;8.65;7.85;;;;;;;;;;4989366;28;20427;-84
2021/01/15 14:28:50;;;;;;;10.07;8.18;;;;;;;;;;4986036;28;20407;-82